Time;durP1;ratioP1;P1;durP2;ratioP2;P2;SDS_P1;SDS_P2;PMS_P1;PMS_P2;Temp;Humidity;BMP_temperature;BMP_pressure;BME280_temperature;BME280_humidity;BME280_pressure;Samples;Min_cycle;Max_cycle;Signal;HPM_P1;HPM_P2
2024/01/23 00:01:20;;;;;;;;;;;6.50;99.90;;;;;;5156842;27;20064;-70
2024/01/23 00:03:46;;;;;;;0.80;0.80;;;7.10;99.90;;;;;;5156635;27;19919;-73
2024/01/23 00:06:12;;;;;;;0.80;0.80;;;6.50;99.90;;;;;;5156459;27;20466;-73
2024/01/23 00:08:37;;;;;;;0.80;0.80;;;6.50;99.90;;;;;;5156467;27;20070;-71
2024/01/23 00:11:03;;;;;;;0.90;0.90;;;6.80;99.90;;;;;;5156175;27;20035;-74
2024/01/23 00:13:29;;;;;;;0.82;0.82;;;6.50;99.90;;;;;;5156302;27;20359;-73
2024/01/23 00:15:54;;;;;;;1.35;1.25;;;6.50;99.90;;;;;;5156026;27;20034;-71
2024/01/23 00:18:20;;;;;;;1.88;1.55;;;6.90;99.90;;;;;;5156232;27;20051;-71
2024/01/23 00:20:47;;;;;;;0.85;0.85;;;6.50;99.90;;;;;;5156145;27;20035;-72
2024/01/23 00:23:13;;;;;;;2.15;1.00;;;6.60;99.90;;;;;;5156207;27;20078;-73
2024/01/23 00:25:39;;;;;;;0.80;0.80;;;6.60;99.90;;;;;;5155815;27;20070;-71
2024/01/23 00:28:06;;;;;;;0.90;0.90;;;6.60;99.90;;;;;;5155993;27;20146;-73
2024/01/23 00:30:32;;;;;;;0.90;0.90;;;6.60;99.90;;;;;;5155568;27;20050;-71
2024/01/23 00:32:58;;;;;;;0.90;0.90;;;6.70;99.90;;;;;;5156041;27;20057;-73
2024/01/23 00:35:24;;;;;;;1.15;1.08;;;6.70;99.90;;;;;;5155977;27;20074;-71
2024/01/23 00:37:50;;;;;;;0.82;0.82;;;7.10;99.90;;;;;;5156057;27;20075;-74
2024/01/23 00:40:15;;;;;;;0.80;0.80;;;6.70;99.90;;;;;;5155929;27;20046;-70
2024/01/23 00:42:41;;;;;;;0.90;0.90;;;6.70;99.90;;;;;;5155660;27;20045;-73
2024/01/23 00:45:08;;;;;;;0.85;0.85;;;6.70;99.90;;;;;;5155758;27;20047;-72
2024/01/23 00:47:33;;;;;;;1.50;1.40;;;6.70;99.90;;;;;;5155545;27;20482;-74
2024/01/23 00:49:59;;;;;;;0.80;0.80;;;6.70;99.90;;;;;;5155589;27;20049;-71
2024/01/23 00:52:24;;;;;;;0.80;0.80;;;6.70;99.90;;;;;;5155234;27;20065;-70
2024/01/23 00:54:50;;;;;;;0.90;0.90;;;7.70;99.90;;;;;;5155648;27;20047;-74
2024/01/23 00:57:16;;;;;;;0.90;0.90;;;6.60;99.90;;;;;;5155572;27;20078;-73
2024/01/23 00:59:41;;;;;;;0.90;0.90;;;6.60;99.90;;;;;;5155571;27;20041;-70
2024/01/23 01:02:07;;;;;;;0.90;0.90;;;6.60;99.90;;;;;;5155456;27;20517;-73
2024/01/23 01:04:33;;;;;;;0.80;0.80;;;6.60;99.90;;;;;;5137058;27;20042;-72
2024/01/23 01:06:59;;;;;;;0.90;0.90;;;6.60;99.90;;;;;;5155793;27;20051;-72
2024/01/23 01:09:28;;;;;;;0.90;0.90;;;7.60;99.90;;;;;;5155483;27;20042;-74
2024/01/23 01:11:54;;;;;;;1.27;1.23;;;6.60;99.90;;;;;;5155395;27;20045;-71
2024/01/23 01:14:19;;;;;;;1.60;1.50;;;6.60;99.90;;;;;;5155925;27;20043;-72
2024/01/23 01:16:45;;;;;;;0.90;0.90;;;6.60;99.90;;;;;;5155381;27;20046;-72
2024/01/23 01:19:10;;;;;;;0.80;0.80;;;6.50;99.90;;;;;;5155393;27;20482;-71
2024/01/23 01:21:37;;;;;;;0.90;0.90;;;6.50;99.90;;;;;;5155278;27;20034;-75
2024/01/23 01:24:03;;;;;;;0.85;0.85;;;6.50;99.90;;;;;;5155491;27;20435;-72
2024/01/23 01:26:28;;;;;;;0.80;0.80;;;6.40;99.90;;;;;;5154983;27;20039;-73
2024/01/23 01:28:54;;;;;;;0.80;0.80;;;6.50;99.90;;;;;;5155209;27;20375;-72
2024/01/23 01:31:19;;;;;;;0.80;0.80;;;6.40;99.90;;;;;;5155675;27;20246;-72
2024/01/23 01:33:45;;;;;;;1.00;1.00;;;6.40;99.90;;;;;;5155528;27;20041;-73
2024/01/23 01:36:10;;;;;;;0.80;0.80;;;6.50;99.90;;;;;;5155154;27;20046;-72
2024/01/23 01:38:36;;;;;;;0.82;0.82;;;6.40;99.90;;;;;;5155231;27;20093;-73
2024/01/23 01:41:03;;;;;;;0.90;0.90;;;6.40;99.90;;;;;;5154801;27;20041;-74
2024/01/23 01:43:30;;;;;;;0.90;0.90;;;6.40;99.90;;;;;;5158145;27;20074;-74
2024/01/23 01:46:19;;;;;;;0.90;0.90;;;6.40;99.90;;;;;;5159170;27;20517;-73
2024/01/23 01:48:46;;;;;;;1.17;1.13;;;6.50;99.90;;;;;;5159356;27;20107;-73
2024/01/23 01:51:13;;;;;;;0.80;0.80;;;6.40;99.90;;;;;;5159089;27;20107;-73
2024/01/23 01:53:40;;;;;;;1.40;1.30;;;6.40;99.90;;;;;;5159057;27;20099;-74
2024/01/23 01:56:06;;;;;;;0.80;0.80;;;6.50;99.90;;;;;;5159066;27;20035;-73
2024/01/23 01:58:32;;;;;;;0.90;0.90;;;6.50;99.90;;;;;;5159025;27;20379;-72
2024/01/23 02:01:00;;;;;;;0.80;0.80;;;7.20;99.90;;;;;;5158719;27;20501;-74
2024/01/23 02:03:27;;;;;;;0.90;0.90;;;6.90;99.90;;;;;;5158957;27;20046;-74
2024/01/23 02:05:54;;;;;;;0.80;0.80;;;6.90;99.90;;;;;;5158829;27;20042;-72
2024/01/23 02:08:20;;;;;;;1.00;1.00;;;7.20;99.90;;;;;;5158778;27;20042;-73
2024/01/23 02:10:45;;;;;;;1.05;1.05;;;7.50;99.90;;;;;;5158704;27;20043;-72
2024/01/23 02:13:11;;;;;;;0.80;0.80;;;6.50;99.90;;;;;;5158729;27;20083;-73
2024/01/23 02:15:37;;;;;;;0.90;0.90;;;6.50;99.90;;;;;;5158712;27;20035;-73
2024/01/23 02:18:03;;;;;;;1.00;0.90;;;6.50;99.90;;;;;;5158632;27;20129;-73
2024/01/23 02:20:29;;;;;;;0.80;0.80;;;6.40;99.90;;;;;;5158488;27;20044;-73
2024/01/23 02:22:54;;;;;;;0.80;0.80;;;6.50;99.90;;;;;;5158559;27;20043;-73
2024/01/23 02:25:20;;;;;;;0.90;0.90;;;6.40;99.90;;;;;;5158423;27;20508;-73
2024/01/23 02:27:46;;;;;;;0.90;0.90;;;6.40;99.90;;;;;;5140648;27;20047;-73
2024/01/23 02:30:12;;;;;;;0.90;0.90;;;6.30;99.90;;;;;;5158380;27;20087;-75
2024/01/23 02:32:45;;;;;;;0.90;0.90;;;6.30;99.90;;;;;;5158404;27;20043;-73
2024/01/23 02:35:12;;;;;;;0.80;0.80;;;6.30;99.90;;;;;;5158469;27;20047;-73
2024/01/23 02:37:38;;;;;;;0.80;0.80;;;6.60;99.90;;;;;;5158185;27;20054;-74
2024/01/23 02:40:05;;;;;;;0.90;0.90;;;6.10;99.90;;;;;;5158227;27;20389;-73
2024/01/23 02:42:31;;;;;;;0.80;0.80;;;6.20;99.90;;;;;;5158133;27;20035;-73
2024/01/23 02:44:57;;;;;;;0.80;0.80;;;6.30;99.90;;;;;;5158116;27;20051;-74
2024/01/23 02:47:23;;;;;;;2.85;2.63;;;6.20;99.90;;;;;;5158121;27;20102;-74
2024/01/23 02:49:49;;;;;;;0.80;0.80;;;6.20;99.90;;;;;;5157994;27;20042;-73
2024/01/23 02:52:15;;;;;;;28.60;2.57;;;6.20;99.90;;;;;;5157764;27;20055;-74
2024/01/23 02:54:40;;;;;;;0.90;0.90;;;6.20;99.90;;;;;;5156770;27;20288;-74
2024/01/23 02:57:06;;;;;;;0.80;0.80;;;6.90;99.90;;;;;;5157899;27;20134;-73
2024/01/23 02:59:32;;;;;;;1.13;1.10;;;6.10;99.90;;;;;;5158207;27;20509;-73
2024/01/23 03:01:57;;;;;;;0.90;0.90;;;6.10;99.90;;;;;;5157724;27;20043;-72
2024/01/23 03:04:23;;;;;;;4.80;4.35;;;6.10;99.90;;;;;;5157676;27;20046;-74
2024/01/23 03:06:49;;;;;;;1.33;1.23;;;6.00;99.90;;;;;;5157745;27;20039;-73
2024/01/23 03:09:14;;;;;;;1.30;1.20;;;6.00;99.90;;;;;;5157640;27;20367;-72
2024/01/23 03:11:40;;;;;;;0.90;0.90;;;6.00;99.90;;;;;;5157736;27;20046;-73
2024/01/23 03:14:06;;;;;;;0.90;0.90;;;5.90;99.90;;;;;;5158031;27;20482;-73
2024/01/23 03:16:32;;;;;;;3.35;3.08;;;5.90;99.90;;;;;;5157533;27;20064;-74
2024/01/23 03:18:57;;;;;;;0.90;0.90;;;5.90;99.90;;;;;;5157508;27;20035;-73
2024/01/23 03:21:23;;;;;;;0.80;0.80;;;5.90;99.90;;;;;;5157283;27;20046;-73
2024/01/23 03:23:49;;;;;;;1.02;1.00;;;5.90;99.90;;;;;;5157045;27;20371;-73
2024/01/23 03:26:14;;;;;;;1.40;1.30;;;6.70;99.90;;;;;;5157380;27;20035;-73
2024/01/23 03:28:40;;;;;;;8.57;1.70;;;5.90;99.90;;;;;;5157236;27;20175;-73
2024/01/23 03:31:06;;;;;;;1.52;1.33;;;6.80;99.90;;;;;;5157248;27;20049;-75
2024/01/23 03:33:32;;;;;;;0.90;0.90;;;6.00;99.90;;;;;;5157145;27;20042;-73
2024/01/23 03:35:58;;;;;;;0.80;0.80;;;6.00;99.90;;;;;;5156818;27;20478;-73
2024/01/23 03:38:23;;;;;;;0.90;0.90;;;6.10;99.90;;;;;;5156953;27;20043;-73
2024/01/23 03:40:49;;;;;;;0.90;0.90;;;6.10;99.90;;;;;;5157390;27;20075;-74
2024/01/23 03:43:14;;;;;;;0.80;0.80;;;6.10;99.90;;;;;;5157013;27;20042;-72
2024/01/23 03:45:40;;;;;;;0.90;0.90;;;6.10;99.90;;;;;;5156904;27;20038;-72
2024/01/23 03:48:06;;;;;;;0.90;0.90;;;6.10;99.90;;;;;;5156974;27;20054;-73
2024/01/23 03:50:32;;;;;;;1.20;1.10;;;5.80;99.90;;;;;;5156508;27;20089;-73
2024/01/23 03:52:58;;;;;;;0.90;0.90;;;6.20;99.90;;;;;;5138508;27;20082;-73
2024/01/23 03:55:23;;;;;;;0.80;0.80;;;6.40;99.90;;;;;;5157335;27;20440;-75
2024/01/23 03:57:49;;;;;;;0.80;0.80;;;6.20;99.90;;;;;;5156528;27;20039;-74
2024/01/23 04:00:15;;;;;;;0.90;0.90;;;6.20;99.90;;;;;;5156372;27;20070;-73
2024/01/23 04:02:41;;;;;;;0.90;0.90;;;6.20;99.90;;;;;;5156551;27;20042;-73
2024/01/23 04:05:07;;;;;;;0.90;0.90;;;6.20;99.90;;;;;;5138100;27;20073;-73
2024/01/23 04:07:34;;;;;;;1.40;1.30;;;6.20;99.90;;;;;;5156431;27;20068;-72
2024/01/23 04:10:06;;;;;;;1.13;1.02;;;6.20;99.90;;;;;;5138017;27;20446;-73
2024/01/23 04:12:32;;;;;;;0.80;0.80;;;6.20;99.90;;;;;;5156776;27;20070;-74
2024/01/23 04:14:58;;;;;;;2.00;1.90;;;6.20;99.90;;;;;;5156331;27;20100;-73
2024/01/23 04:17:25;;;;;;;0.90;0.90;;;6.20;99.90;;;;;;5156598;27;20046;-74
2024/01/23 04:19:50;;;;;;;0.90;0.90;;;6.40;99.90;;;;;;5156275;27;20043;-73
2024/01/23 04:22:16;;;;;;;1.00;0.90;;;6.20;99.90;;;;;;5156177;27;20564;-73
2024/01/23 04:24:41;;;;;;;1.20;1.10;;;6.20;99.90;;;;;;5156144;27;20470;-73
2024/01/23 04:27:07;;;;;;;3.30;3.10;;;7.20;99.90;;;;;;5156197;27;20039;-73
2024/01/23 04:29:33;;;;;;;1.00;1.00;;;6.30;99.90;;;;;;5155884;27;20394;-73
2024/01/23 04:31:59;;;;;;;0.80;0.80;;;6.30;99.90;;;;;;5155754;27;20046;-73
2024/01/23 04:34:24;;;;;;;0.98;0.98;;;6.30;99.90;;;;;;5155998;27;20090;-74
2024/01/23 04:36:50;;;;;;;0.80;0.80;;;6.40;99.90;;;;;;5155862;27;20034;-73
2024/01/23 04:39:18;;;;;;;1.00;0.90;;;6.40;99.90;;;;;;5156876;27;20038;-73
2024/01/23 04:41:44;;;;;;;1.00;1.00;;;7.10;99.90;;;;;;5156153;27;20470;-73
2024/01/23 04:44:09;;;;;;;1.13;1.08;;;7.40;99.90;;;;;;5155828;27;20050;-73
2024/01/23 04:46:35;;;;;;;1.70;1.42;;;6.40;99.90;;;;;;5156018;27;20482;-75
2024/01/23 04:49:01;;;;;;;0.90;0.90;;;6.40;99.90;;;;;;5155776;27;20133;-75
2024/01/23 04:51:27;;;;;;;1.17;1.02;;;6.40;99.90;;;;;;5155751;27;20060;-75
2024/01/23 04:53:52;;;;;;;0.90;0.90;;;6.40;99.90;;;;;;5137307;27;20482;-73
2024/01/23 04:56:19;;;;;;;0.80;0.80;;;6.40;99.90;;;;;;5155382;27;20059;-73
2024/01/23 04:58:44;;;;;;;0.90;0.90;;;6.40;99.90;;;;;;5155601;27;20045;-72
2024/01/23 05:01:10;;;;;;;1.20;1.10;;;6.40;99.90;;;;;;5155492;27;20043;-73
2024/01/23 05:03:36;;;;;;;0.88;0.88;;;6.40;99.90;;;;;;5155679;27;20057;-73
2024/01/23 05:06:01;;;;;;;0.80;0.80;;;6.40;99.90;;;;;;5155506;27;20499;-74
2024/01/23 05:08:27;;;;;;;1.70;1.60;;;6.40;99.90;;;;;;5155497;27;20043;-74
2024/01/23 05:10:53;;;;;;;0.90;0.90;;;6.40;99.90;;;;;;5155845;27;20085;-75
2024/01/23 05:13:18;;;;;;;3.03;1.38;;;6.30;99.90;;;;;;5155791;27;20042;-75
2024/01/23 05:15:44;;;;;;;0.88;0.88;;;6.40;99.90;;;;;;5155647;27;20038;-74
2024/01/23 05:18:10;;;;;;;1.10;1.00;;;6.30;99.90;;;;;;5155025;27;20167;-73
2024/01/23 05:20:36;;;;;;;0.80;0.80;;;6.40;99.90;;;;;;5155246;27;20038;-73
2024/01/23 05:23:03;;;;;;;0.90;0.90;;;6.30;99.90;;;;;;5155353;27;20078;-73
2024/01/23 05:25:28;;;;;;;;;;;6.30;99.90;;;;;;5155733;27;20051;-75
2024/01/23 05:27:54;;;;;;;0.80;0.80;;;6.30;99.90;;;;;;5155298;27;20007;-73
2024/01/23 05:30:20;;;;;;;0.80;0.80;;;7.40;99.90;;;;;;5155026;27;20057;-74
2024/01/23 05:32:46;;;;;;;0.90;0.90;;;6.30;99.90;;;;;;5137012;27;20038;-72
2024/01/23 05:35:11;;;;;;;1.75;1.65;;;6.30;99.90;;;;;;5155269;27;20086;-74
2024/01/23 05:37:37;;;;;;;0.85;0.85;;;6.40;99.90;;;;;;5155227;27;20091;-74
2024/01/23 05:40:04;;;;;;;0.90;0.90;;;6.40;99.90;;;;;;5155310;27;20046;-74
2024/01/23 05:42:29;;;;;;;1.48;1.38;;;6.40;99.90;;;;;;5155013;27;20047;-73
2024/01/23 05:44:56;;;;;;;0.90;0.90;;;7.40;99.90;;;;;;5155124;27;20042;-73
2024/01/23 05:47:21;;;;;;;0.82;0.82;;;6.40;99.90;;;;;;5155113;27;20427;-76
2024/01/23 05:49:47;;;;;;;0.82;0.82;;;6.30;99.90;;;;;;5154927;27;20133;-75
2024/01/23 05:52:13;;;;;;;0.90;0.90;;;6.30;99.90;;;;;;5155526;27;20055;-73
2024/01/23 05:54:41;;;;;;;0.80;0.80;;;6.60;99.90;;;;;;5154971;27;20047;-73
2024/01/23 05:57:09;;;;;;;0.80;0.80;;;6.30;99.90;;;;;;5154989;27;20058;-74
2024/01/23 05:59:35;;;;;;;0.88;0.88;;;6.30;99.90;;;;;;5155244;27;20045;-73
2024/01/23 06:02:01;;;;;;;1.20;1.10;;;6.30;99.90;;;;;;5154539;27;20386;-74
2024/01/23 06:04:26;;;;;;;0.90;0.90;;;6.30;99.90;;;;;;5136727;27;20061;-73
2024/01/23 06:06:52;;;;;;;0.90;0.90;;;6.30;99.90;;;;;;5154974;27;20121;-73
2024/01/23 06:09:17;;;;;;;1.00;1.00;;;6.30;99.90;;;;;;5155342;27;20051;-74
2024/01/23 06:11:43;;;;;;;0.90;0.90;;;6.30;99.90;;;;;;5154936;27;20411;-74
2024/01/23 06:14:09;;;;;;;0.95;0.95;;;6.30;99.90;;;;;;5154875;27;20043;-73
2024/01/23 06:16:34;;;;;;;0.90;0.90;;;6.30;99.90;;;;;;5154839;27;20520;-72
2024/01/23 06:19:00;;;;;;;1.77;1.15;;;6.30;99.90;;;;;;5154895;27;20134;-73
2024/01/23 06:21:25;;;;;;;3.65;2.35;;;6.30;99.90;;;;;;5154611;27;20070;-74
2024/01/23 06:23:51;;;;;;;1.05;0.95;;;6.30;99.90;;;;;;5154803;27;20461;-73
2024/01/23 06:26:17;;;;;;;0.80;0.80;;;6.30;99.90;;;;;;5155129;27;20047;-73
2024/01/23 06:28:45;;;;;;;0.80;0.80;;;6.30;99.90;;;;;;5155022;27;20082;-73
2024/01/23 06:31:11;;;;;;;1.48;1.38;;;6.30;99.90;;;;;;5158396;27;20394;-72
2024/01/23 06:33:37;;;;;;;0.90;0.90;;;6.40;99.90;;;;;;5158410;27;20039;-73
2024/01/23 06:36:03;;;;;;;0.90;0.90;;;6.40;99.90;;;;;;5158287;27;20057;-73
2024/01/23 06:38:29;;;;;;;1.00;0.90;;;6.40;99.90;;;;;;5158279;27;20035;-73
2024/01/23 06:40:55;;;;;;;0.90;0.90;;;6.40;99.90;;;;;;5158144;27;20050;-74
2024/01/23 06:43:20;;;;;;;1.10;1.10;;;6.40;99.90;;;;;;5158284;27;20042;-76
2024/01/23 06:45:46;;;;;;;1.00;1.00;;;6.40;99.90;;;;;;5158064;27;20466;-79
2024/01/23 06:48:11;;;;;;;0.80;0.80;;;6.50;99.90;;;;;;5158030;27;20494;-74
2024/01/23 06:50:37;;;;;;;3.47;3.17;;;6.40;99.90;;;;;;5158090;27;20090;-73
2024/01/23 06:53:03;;;;;;;1.10;1.00;;;6.40;99.90;;;;;;5157946;27;20050;-73
2024/01/23 06:55:29;;;;;;;1.15;1.15;;;6.40;99.90;;;;;;5157966;27;20043;-72
2024/01/23 06:57:54;;;;;;;1.00;0.93;;;6.40;99.90;;;;;;5157601;27;20031;-73
2024/01/23 07:00:20;;;;;;;0.90;0.90;;;7.40;99.90;;;;;;5157997;27;20130;-72
2024/01/23 07:02:46;;;;;;;0.90;0.90;;;6.50;99.90;;;;;;5157789;27;20107;-72
2024/01/23 07:05:12;;;;;;;0.90;0.90;;;6.40;99.90;;;;;;5157733;27;20043;-73
2024/01/23 07:07:37;;;;;;;0.90;0.90;;;6.50;99.90;;;;;;5157688;27;20042;-73
2024/01/23 07:10:04;;;;;;;0.90;0.90;;;6.50;99.90;;;;;;5157935;27;20039;-74
2024/01/23 07:12:30;;;;;;;0.90;0.90;;;6.50;99.90;;;;;;5157516;27;20047;-71
2024/01/23 07:14:56;;;;;;;0.85;0.85;;;7.60;99.90;;;;;;5157146;27;20088;-72
2024/01/23 07:17:21;;;;;;;0.80;0.80;;;6.50;99.90;;;;;;5157445;27;20038;-76
2024/01/23 07:19:47;;;;;;;0.88;0.88;;;6.50;99.90;;;;;;5157259;27;20046;-74
2024/01/23 07:22:12;;;;;;;0.88;0.88;;;6.50;99.90;;;;;;5157003;27;20047;-74
2024/01/23 07:24:38;;;;;;;1.17;1.13;;;6.50;99.90;;;;;;5157301;27;20375;-72
2024/01/23 07:27:03;;;;;;;0.90;0.90;;;7.60;99.90;;;;;;5157329;27;20137;-73
2024/01/23 07:29:30;;;;;;;0.80;0.80;;;6.50;99.90;;;;;;5157556;27;20042;-74
2024/01/23 07:31:57;;;;;;;2.30;2.13;;;6.80;99.90;;;;;;5157284;27;20042;-75
2024/01/23 07:34:22;;;;;;;0.90;0.90;;;7.50;99.90;;;;;;5157269;27;20045;-75
2024/01/23 07:36:48;;;;;;;1.00;0.90;;;6.50;99.90;;;;;;5157143;27;20137;-74
2024/01/23 07:39:14;;;;;;;0.90;0.90;;;6.60;99.90;;;;;;5156697;27;20577;-73
2024/01/23 07:41:42;;;;;;;0.90;0.90;;;6.50;99.90;;;;;;5157041;27;20054;-75
2024/01/23 07:44:08;;;;;;;0.90;0.90;;;6.50;99.90;;;;;;5157334;27;20049;-74
2024/01/23 07:46:33;;;;;;;0.80;0.80;;;6.60;99.90;;;;;;5157005;27;20129;-74
2024/01/23 07:48:59;;;;;;;0.90;0.90;;;6.50;99.90;;;;;;5156872;27;20081;-72
2024/01/23 07:51:25;;;;;;;0.90;0.90;;;6.50;99.90;;;;;;5156603;27;20057;-72
2024/01/23 07:53:50;;;;;;;0.82;0.82;;;6.50;99.90;;;;;;5157173;27;20054;-76
2024/01/23 07:56:16;;;;;;;0.90;0.90;;;6.60;99.90;;;;;;5156773;27;20115;-74
2024/01/23 07:58:42;;;;;;;0.85;0.85;;;6.50;99.90;;;;;;5156958;27;20043;-71
2024/01/23 08:01:07;;;;;;;0.90;0.90;;;6.50;99.90;;;;;;5156563;27;20031;-74
2024/01/23 08:03:33;;;;;;;0.80;0.80;;;6.50;99.90;;;;;;5138058;27;20096;-74
2024/01/23 08:05:59;;;;;;;1.10;1.00;;;7.20;99.90;;;;;;5156513;27;20046;-72
2024/01/23 08:08:24;;;;;;;0.80;0.80;;;7.50;99.90;;;;;;5156925;27;20126;-76
2024/01/23 08:10:51;;;;;;;1.77;1.00;;;6.40;99.90;;;;;;5156475;27;20054;-72
2024/01/23 08:13:20;;;;;;;1.23;1.17;;;7.50;99.90;;;;;;5156425;27;20053;-72
2024/01/23 08:15:46;;;;;;;2.70;2.15;;;6.40;99.90;;;;;;5156302;27;20042;-73
2024/01/23 08:18:13;;;;;;;2.25;2.03;;;7.30;99.90;;;;;;5156344;27;20497;-71
2024/01/23 08:20:39;;;;;;;0.80;0.80;;;6.40;99.90;;;;;;5155812;27;20512;-74
2024/01/23 08:23:04;;;;;;;2.67;2.15;;;6.50;99.90;;;;;;5156284;27;20039;-73
2024/01/23 08:25:30;;;;;;;0.90;0.90;;;6.30;99.90;;;;;;5156131;27;20089;-75
2024/01/23 08:27:56;;;;;;;0.80;0.80;;;6.30;99.90;;;;;;5156380;27;20038;-74
2024/01/23 08:30:21;;;;;;;1.30;1.20;;;6.20;99.90;;;;;;5156156;27;20070;-73
2024/01/23 08:32:47;;;;;;;1.40;1.30;;;7.20;99.90;;;;;;5156074;27;20041;-73
2024/01/23 08:35:15;;;;;;;1.33;1.23;;;6.20;99.90;;;;;;5155958;27;20035;-73
2024/01/23 08:37:40;;;;;;;0.90;0.90;;;6.10;99.90;;;;;;5156579;27;20089;-73
2024/01/23 08:40:07;;;;;;;1.45;1.35;;;6.10;99.90;;;;;;5155944;27;20130;-73
2024/01/23 08:42:33;;;;;;;0.90;0.90;;;6.10;99.90;;;;;;5156151;27;20478;-72
2024/01/23 08:44:58;;;;;;;0.82;0.82;;;6.10;99.90;;;;;;5155848;27;20049;-74
2024/01/23 08:47:24;;;;;;;1.45;1.00;;;6.10;99.90;;;;;;5155917;27;20077;-76
2024/01/23 08:49:50;;;;;;;1.17;1.10;;;6.10;99.90;;;;;;5155715;27;20401;-72
2024/01/23 08:52:16;;;;;;;0.90;0.90;;;6.10;99.90;;;;;;5155365;27;20054;-74
2024/01/23 08:54:41;;;;;;;1.90;1.80;;;6.10;99.90;;;;;;5155640;27;20071;-75
2024/01/23 08:57:09;;;;;;;0.80;0.80;;;6.10;99.90;;;;;;5155732;27;20085;-73
2024/01/23 08:59:40;;;;;;;0.80;0.80;;;6.10;99.90;;;;;;5155768;27;20067;-74
2024/01/23 09:02:06;;;;;;;0.80;0.80;;;6.10;99.90;;;;;;5155556;27;20091;-74
2024/01/23 09:04:31;;;;;;;0.80;0.80;;;6.10;99.90;;;;;;5155457;27;20058;-74
2024/01/23 09:06:57;;;;;;;0.82;0.82;;;6.10;99.90;;;;;;5155543;27;20046;-72
2024/01/23 09:09:23;;;;;;;1.65;1.55;;;6.10;99.90;;;;;;5155892;27;20386;-72
2024/01/23 09:11:49;;;;;;;6.25;2.28;;;6.20;99.90;;;;;;5155150;27;20047;-73
2024/01/23 09:14:15;;;;;;;0.90;0.90;;;6.10;99.90;;;;;;5154857;27;20046;-80
2024/01/23 09:16:40;;;;;;;0.90;0.90;;;6.60;99.90;;;;;;5155379;27;20042;-79
2024/01/23 09:19:06;;;;;;;1.00;1.00;;;6.20;99.90;;;;;;5155321;27;20041;-73
2024/01/23 09:21:31;;;;;;;1.13;1.10;;;6.20;99.90;;;;;;5155247;27;20049;-73
2024/01/23 09:23:57;;;;;;;0.90;0.90;;;6.20;99.90;;;;;;5155239;27;20073;-73
2024/01/23 09:26:23;;;;;;;0.80;0.80;;;6.30;99.90;;;;;;5155013;27;20037;-73
2024/01/23 09:28:49;;;;;;;0.85;0.85;;;6.30;99.90;;;;;;5154614;27;20089;-74
2024/01/23 09:31:14;;;;;;;0.90;0.90;;;6.30;99.90;;;;;;5155161;27;20046;-72
2024/01/23 09:33:40;;;;;;;0.90;0.90;;;6.30;99.90;;;;;;5154582;27;20535;-72
2024/01/23 09:36:05;;;;;;;0.90;0.90;;;6.40;99.90;;;;;;5155255;27;20047;-72
2024/01/23 09:38:31;;;;;;;0.90;0.90;;;6.40;99.90;;;;;;5155361;27;20043;-71
2024/01/23 09:40:57;;;;;;;0.90;0.90;;;6.40;99.90;;;;;;5154941;27;20039;-72
2024/01/23 09:43:24;;;;;;;0.85;0.85;;;6.50;99.90;;;;;;5155095;27;20379;-77
2024/01/23 09:45:51;;;;;;;0.80;0.80;;;6.50;99.90;;;;;;5154893;27;20413;-71
2024/01/23 09:48:17;;;;;;;0.80;0.80;;;6.50;99.90;;;;;;5154904;27;20046;-73
2024/01/23 09:50:45;;;;;;;0.90;0.90;;;6.50;99.90;;;;;;5154910;27;20059;-68
2024/01/23 09:53:10;;;;;;;0.80;0.80;;;7.30;99.90;;;;;;5155461;27;20051;-73
2024/01/23 09:55:37;;;;;;;0.80;0.80;;;6.60;99.90;;;;;;5155054;27;20088;-75
2024/01/23 09:58:04;;;;;;;0.88;0.88;;;6.60;99.90;;;;;;5155051;27;20390;-74
2024/01/23 10:00:30;;;;;;;2.40;2.25;;;6.70;99.90;;;;;;5155137;27;20514;-74
2024/01/23 10:02:56;;;;;;;0.80;0.80;;;6.70;99.90;;;;;;5155456;27;20042;-73
2024/01/23 10:05:22;;;;;;;1.00;1.00;;;7.40;99.90;;;;;;5159620;27;20176;-75
2024/01/23 10:07:48;;;;;;;0.90;0.90;;;6.80;99.90;;;;;;5158780;27;20038;-75
2024/01/23 10:10:16;;;;;;;0.90;0.90;;;6.80;99.90;;;;;;5159114;27;20035;-80
2024/01/23 10:12:48;;;;;;;0.80;0.80;;;6.80;99.90;;;;;;5158975;27;20490;-70
2024/01/23 10:15:20;;;;;;;0.80;0.80;;;6.90;99.90;;;;;;5158816;27;20047;-71
2024/01/23 10:17:47;;;;;;;0.90;0.90;;;6.90;99.90;;;;;;5158568;27;20111;-70
2024/01/23 10:20:13;;;;;;;1.87;1.77;;;7.20;99.90;;;;;;5158708;27;20419;-70
2024/01/23 10:22:38;;;;;;;0.90;0.90;;;6.90;99.90;;;;;;5158523;27;20039;-72
2024/01/23 10:25:14;;;;;;;1.25;1.20;;;6.90;99.90;;;;;;5158546;27;20031;-72
2024/01/23 10:27:40;;;;;;;0.80;0.80;;;7.00;99.90;;;;;;5158568;27;20038;-73
2024/01/23 10:30:06;;;;;;;1.30;1.20;;;7.00;99.90;;;;;;5158380;27;20050;-71
2024/01/23 10:32:32;;;;;;;0.90;0.90;;;7.00;99.90;;;;;;5158320;27;20042;-75
2024/01/23 10:34:58;;;;;;;0.80;0.80;;;7.70;99.90;;;;;;5158743;27;20050;-68
2024/01/23 10:37:23;;;;;;;0.80;0.80;;;7.10;99.90;;;;;;5158582;27;20054;-71
2024/01/23 10:39:51;;;;;;;0.90;0.90;;;7.10;99.90;;;;;;5158254;27;20470;-66
2024/01/23 10:42:18;;;;;;;4.88;0.90;;;7.30;99.90;;;;;;5158158;27;20099;-66
2024/01/23 10:44:50;;;;;;;;;;;7.20;99.90;;;;;;5158524;27;20038;-66
2024/01/23 10:47:19;;;;;;;1.70;1.60;;;7.20;99.90;;;;;;5158131;27;19919;-67
2024/01/23 10:49:45;;;;;;;0.90;0.90;;;7.20;99.90;;;;;;5158305;27;20043;-67
2024/01/23 10:52:18;;;;;;;0.90;0.90;;;7.30;99.90;;;;;;5158088;27;20043;-66
2024/01/23 10:54:52;;;;;;;0.80;0.80;;;7.20;99.90;;;;;;5158183;27;20467;-66
2024/01/23 10:57:22;;;;;;;0.90;0.90;;;8.00;99.90;;;;;;5157996;27;20118;-67
2024/01/23 10:59:49;;;;;;;0.80;0.80;;;7.30;99.90;;;;;;5157888;27;20031;-68
2024/01/23 11:02:53;;;;;;;1.20;1.10;;;7.50;99.90;;;;;;5156720;27;20117;-70
2024/01/23 11:05:28;;;;;;;1.45;1.35;;;7.40;99.90;;;;;;5139021;27;20054;-68
2024/01/23 11:08:02;;;;;;;0.80;0.80;;;7.40;99.90;;;;;;5161722;27;20047;-66
2024/01/23 11:11:00;;;;;;;1.00;1.00;;;7.40;99.90;;;;;;5158180;27;20078;-67
2024/01/23 11:13:35;;;;;;;0.90;0.90;;;8.10;99.90;;;;;;5157475;27;20058;-67
2024/01/23 11:16:06;;;;;;;0.80;0.80;;;7.70;99.90;;;;;;5137687;27;20050;-67
2024/01/23 11:18:33;;;;;;;1.13;0.90;;;7.40;99.90;;;;;;5157662;27;20095;-69
2024/01/23 11:21:10;;;;;;;0.90;0.90;;;7.40;99.90;;;;;;5157135;27;20081;-69
2024/01/23 11:23:41;;;;;;;0.80;0.80;;;7.40;99.90;;;;;;5157165;27;20490;-68
2024/01/23 11:26:19;;;;;;;4.95;2.17;;;7.50;99.90;;;;;;5155794;27;20072;-68
2024/01/23 11:28:47;;;;;;;0.90;0.90;;;7.60;99.90;;;;;;5156775;27;20397;-69
2024/01/23 11:31:16;;;;;;;1.10;1.00;;;7.50;99.90;;;;;;5156912;27;20446;-67
2024/01/23 11:33:42;;;;;;;0.80;0.80;;;7.50;99.90;;;;;;5157067;27;20082;-68
2024/01/23 11:36:12;;;;;;;0.80;0.80;;;7.50;99.90;;;;;;5157001;27;20035;-69
2024/01/23 11:38:44;;;;;;;0.80;0.80;;;7.80;99.90;;;;;;5155913;27;20038;-68
2024/01/23 11:41:22;;;;;;;0.70;0.70;;;7.60;99.90;;;;;;5155348;27;20042;-67
2024/01/23 11:43:50;;;;;;;0.80;0.80;;;7.60;99.90;;;;;;5156917;27;20038;-70
2024/01/23 11:46:18;;;;;;;;;;;7.60;99.90;;;;;;5157294;27;20046;-69
2024/01/23 11:48:44;;;;;;;0.95;0.95;;;7.60;99.90;;;;;;5156837;27;20351;-68
2024/01/23 11:51:15;;;;;;;1.27;1.17;;;7.60;99.90;;;;;;5156211;27;20134;-69
2024/01/23 11:53:44;;;;;;;0.80;0.80;;;8.30;99.90;;;;;;5156583;27;20409;-70
2024/01/23 11:56:10;;;;;;;0.82;0.82;;;8.60;99.90;;;;;;5156397;27;20070;-68
2024/01/23 11:58:36;;;;;;;3.40;2.60;;;7.70;99.90;;;;;;5156685;27;20039;-68
2024/01/23 12:01:04;;;;;;;0.80;0.80;;;7.70;99.90;;;;;;5156460;27;20386;-68
2024/01/23 12:03:30;;;;;;;0.80;0.80;;;7.80;99.90;;;;;;5156309;27;20046;-69
2024/01/23 12:05:56;;;;;;;0.80;0.80;;;7.80;99.90;;;;;;5121047;27;20061;-69
2024/01/23 12:08:28;;;;;;;0.80;0.80;;;7.80;99.90;;;;;;5156376;27;20047;-69
2024/01/23 12:10:56;;;;;;;2.45;1.63;;;8.70;99.90;;;;;;5155864;27;20490;-68
2024/01/23 12:13:25;;;;;;;0.80;0.80;;;7.90;99.90;;;;;;5156547;27;20047;-69
2024/01/23 12:15:51;;;;;;;0.80;0.80;;;7.90;99.90;;;;;;5156167;27;20091;-69
2024/01/23 12:18:21;;;;;;;2.80;1.23;;;7.90;99.90;;;;;;5156168;27;20049;-67
2024/01/23 12:20:50;;;;;;;1.42;1.33;;;7.90;99.90;;;;;;5155799;27;20054;-69
2024/01/23 12:23:16;;;;;;;0.95;0.95;;;8.60;99.90;;;;;;5156123;27;20038;-68
2024/01/23 12:25:43;;;;;;;0.70;0.70;;;8.00;99.90;;;;;;5137892;27;20054;-69
2024/01/23 12:28:09;;;;;;;0.80;0.80;;;8.00;99.90;;;;;;5155990;27;20054;-69
2024/01/23 12:30:35;;;;;;;0.70;0.70;;;7.90;99.90;;;;;;5155675;27;20486;-68
2024/01/23 12:33:01;;;;;;;0.70;0.70;;;7.90;99.90;;;;;;5156134;27;20049;-69
2024/01/23 12:35:26;;;;;;;2.35;2.20;;;7.80;99.90;;;;;;5155921;27;20042;-69
2024/01/23 12:37:52;;;;;;;0.88;0.88;;;7.80;99.90;;;;;;5155719;27;20086;-68
2024/01/23 12:40:18;;;;;;;0.70;0.70;;;7.80;99.90;;;;;;5155915;27;20125;-69
2024/01/23 12:42:46;;;;;;;0.80;0.80;;;7.90;99.90;;;;;;5153119;27;20139;-69
2024/01/23 12:45:16;;;;;;;4.88;2.45;;;8.00;99.90;;;;;;5153834;27;20371;-68
2024/01/23 12:47:43;;;;;;;0.70;0.70;;;8.10;99.90;;;;;;5154201;27;20134;-68
2024/01/23 12:50:20;;;;;;;2.55;1.65;;;8.10;99.90;;;;;;5155303;27;20047;-68
2024/01/23 12:52:46;;;;;;;0.75;0.75;;;8.20;99.90;;;;;;5155290;27;20089;-68
2024/01/23 12:55:14;;;;;;;0.70;0.70;;;8.20;99.90;;;;;;5154271;27;20363;-68